Houston, Minnesota
Current Conditions -  °F | °C
As of 7:53 AM on Thursday 30 Oct 2014 (Local Time) from KLSE Reporting Station
Overcast Overcast  
Wind Chill: 33°   Ceiling: 10000
Heat Index: 38°   Visibility: 10mi
Dew Point: 34°   Wind: 6mph
Humidity: 86%   Direction: 120°ESE
Pressure: 30.07"   Gusts: NA
Location:  43.76°N, 91.57°W
Report Text: KLSE 301253Z 12005KT 10SM OVC100 03/01 A3007 RMK AO2 SLP192 T00330011
Loading
Personal Weather Stations






























Interactive Weather Map
Tropical Storm Tracking
New forecast layout! Learn more

10-Day Weather Forecast

Advertisements
Track Severe Weather on mobile